createdAt,value
2022-10-29T00:02:19.685Z,8.82
2022-10-29T00:04:46.288Z,8.79
2022-10-29T00:07:12.942Z,8.75
2022-10-29T00:09:39.522Z,8.69
2022-10-29T00:12:06.682Z,8.67
2022-10-29T00:14:33.692Z,8.65
2022-10-29T00:17:00.373Z,8.64
2022-10-29T00:19:27.207Z,8.62
2022-10-29T00:21:53.796Z,8.59
2022-10-29T00:24:20.377Z,8.56
2022-10-29T00:26:47.227Z,8.55
2022-10-29T00:29:13.890Z,8.52
2022-10-29T00:31:40.546Z,8.50
2022-10-29T00:34:07.161Z,8.47
2022-10-29T00:36:33.774Z,8.41
2022-10-29T00:39:00.352Z,8.38
2022-10-29T00:41:29.158Z,8.34
2022-10-29T00:44:14.484Z,8.32
2022-10-29T00:46:47.193Z,8.29
2022-10-29T00:49:16.203Z,8.27
2022-10-29T00:51:44.742Z,8.26
2022-10-29T00:54:14.571Z,8.24
2022-10-29T00:56:47.611Z,8.30
2022-10-29T00:59:16.800Z,8.38
2022-10-29T01:01:45.442Z,8.32
2022-10-29T01:04:12.584Z,8.28
2022-10-29T01:06:41.680Z,8.24
2022-10-29T01:09:08.312Z,8.21
2022-10-29T01:11:47.008Z,8.18
2022-10-29T01:14:16.596Z,8.17
2022-10-29T01:16:46.117Z,8.15
2022-10-29T01:19:25.083Z,8.12
2022-10-29T01:22:22.269Z,8.09
2022-10-29T01:25:24.412Z,8.04
2022-10-29T01:28:00.325Z,7.98
2022-10-29T01:30:46.302Z,7.94
2022-10-29T01:33:29.406Z,7.97
2022-10-29T01:36:23.953Z,8.09
2022-10-29T01:39:22.978Z,8.04
2022-10-29T01:42:00.836Z,8.01
2022-10-29T01:44:41.089Z,7.93
2022-10-29T01:47:23.690Z,7.85
2022-10-29T01:49:57.379Z,7.85
2022-10-29T01:52:27.289Z,7.84
2022-10-29T01:54:54.161Z,7.86
2022-10-29T01:57:27.338Z,7.89
2022-10-29T01:59:58.157Z,7.95
2022-10-29T02:02:48.662Z,8.02
2022-10-29T02:05:34.150Z,8.11
2022-10-29T02:08:10.015Z,8.17
2022-10-29T02:10:43.277Z,8.21
2022-10-29T02:13:14.092Z,8.27
2022-10-29T02:15:47.970Z,8.28
2022-10-29T02:18:15.702Z,8.25
2022-10-29T02:20:44.633Z,8.21
2022-10-29T02:23:12.794Z,8.17
2022-10-29T02:25:39.540Z,8.14
2022-10-29T02:28:06.204Z,8.10
2022-10-29T02:30:32.963Z,8.05
2022-10-29T02:32:59.747Z,7.99
2022-10-29T02:35:27.087Z,7.91
2022-10-29T02:37:53.707Z,7.84
2022-10-29T02:40:20.338Z,7.79
2022-10-29T02:42:46.929Z,7.73
2022-10-29T02:45:13.611Z,7.67
2022-10-29T02:47:40.280Z,7.63
2022-10-29T02:50:07.742Z,7.58
2022-10-29T02:52:34.342Z,7.54
2022-10-29T02:55:01.101Z,7.51
2022-10-29T02:57:27.704Z,7.48
2022-10-29T02:59:54.288Z,7.44
2022-10-29T03:02:21.066Z,7.39
2022-10-29T03:04:47.671Z,7.35
2022-10-29T03:07:14.247Z,7.31
2022-10-29T03:09:40.869Z,7.29
2022-10-29T03:12:07.781Z,7.27
2022-10-29T03:14:34.404Z,7.24
2022-10-29T03:17:01.027Z,7.21
2022-10-29T03:19:28.222Z,7.17
2022-10-29T03:21:54.823Z,7.14
2022-10-29T03:24:21.458Z,7.12
2022-10-29T03:26:48.135Z,7.10
2022-10-29T03:29:14.791Z,7.08
2022-10-29T03:31:41.393Z,7.04
2022-10-29T03:34:08.000Z,7.00
2022-10-29T03:36:34.621Z,6.99
2022-10-29T03:39:01.542Z,6.98
2022-10-29T03:41:28.192Z,6.97
2022-10-29T03:46:22.405Z,6.91
2022-10-29T03:48:49.809Z,6.88
2022-10-29T03:51:16.395Z,6.87
2022-10-29T03:53:43.037Z,6.85
2022-10-29T03:56:10.396Z,6.84
2022-10-29T03:58:37.208Z,6.81
2022-10-29T04:01:06.650Z,6.79
2022-10-29T04:03:36.037Z,6.75
2022-10-29T04:06:09.844Z,6.71
2022-10-29T04:08:36.896Z,6.69
2022-10-29T04:11:03.553Z,6.65
2022-10-29T04:13:30.205Z,6.62
2022-10-29T04:15:57.478Z,6.59
2022-10-29T04:18:25.019Z,6.58
2022-10-29T04:26:42.103Z,6.55
2022-10-29T04:29:13.173Z,6.53
2022-10-29T04:31:39.775Z,6.52
2022-10-29T04:34:06.739Z,6.52
2022-10-29T04:36:33.346Z,6.51
2022-10-29T04:39:00.036Z,6.51
2022-10-29T04:41:26.711Z,6.51
2022-10-29T04:43:53.301Z,6.53
2022-10-29T04:46:19.920Z,6.54
2022-10-29T04:48:46.591Z,6.57
2022-10-29T04:51:22.451Z,6.57
2022-10-29T04:53:49.340Z,6.58
2022-10-29T04:56:16.867Z,6.59
2022-10-29T04:58:43.633Z,6.61
2022-10-29T05:01:10.480Z,6.65
2022-10-29T05:03:37.572Z,6.68
2022-10-29T05:06:05.453Z,6.71
2022-10-29T05:08:32.574Z,6.73
2022-10-29T05:11:04.202Z,6.74
2022-10-29T05:13:30.935Z,6.74
2022-10-29T05:15:57.792Z,6.74
2022-10-29T05:18:24.777Z,6.73
2022-10-29T05:20:55.541Z,6.73
2022-10-29T05:23:22.726Z,6.76
2022-10-29T05:25:50.723Z,6.78
2022-10-29T05:28:20.146Z,6.82
2022-10-29T05:30:48.614Z,6.85
2022-10-29T05:33:17.813Z,6.91
2022-10-29T05:35:45.463Z,6.96
2022-10-29T05:38:13.254Z,7.01
2022-10-29T05:40:42.004Z,7.07
2022-10-29T05:43:08.624Z,7.15
2022-10-29T05:45:35.242Z,7.23
2022-10-29T05:48:03.528Z,7.31
2022-10-29T05:50:31.776Z,7.38
2022-10-29T05:53:04.747Z,7.45
2022-10-29T05:55:33.394Z,7.54
2022-10-29T05:58:02.164Z,7.58
2022-10-29T06:00:31.373Z,7.56
2022-10-29T06:02:58.297Z,7.54
2022-10-29T06:05:26.003Z,7.54
2022-10-29T06:07:57.611Z,7.56
2022-10-29T06:10:26.023Z,7.59
2022-10-29T06:12:52.702Z,7.60
2022-10-29T06:15:19.716Z,7.64
2022-10-29T06:17:47.546Z,7.68
2022-10-29T06:20:16.289Z,7.75
2022-10-29T06:22:42.857Z,7.85
2022-10-29T06:25:09.898Z,7.95
2022-10-29T06:27:37.870Z,8.04
2022-10-29T06:30:05.572Z,8.15
2022-10-29T06:32:32.330Z,8.26
2022-10-29T06:34:59.083Z,8.39
2022-10-29T06:37:25.892Z,8.51
2022-10-29T06:39:52.635Z,8.61
2022-10-29T06:42:19.220Z,8.72
2022-10-29T06:44:45.847Z,8.83
2022-10-29T06:47:12.499Z,8.96
2022-10-29T06:49:39.128Z,9.06
2022-10-29T06:52:05.739Z,9.17
2022-10-29T06:54:32.399Z,9.25
2022-10-29T06:56:59.053Z,9.32
2022-10-29T06:59:25.645Z,9.45
2022-10-29T07:01:52.374Z,9.56
2022-10-29T07:04:20.285Z,9.63
2022-10-29T07:06:46.923Z,9.71
2022-10-29T07:09:13.525Z,9.76
2022-10-29T07:11:40.136Z,9.80
2022-10-29T07:14:07.955Z,9.88
2022-10-29T07:16:35.019Z,9.94
2022-10-29T07:19:03.076Z,9.98
2022-10-29T07:21:29.658Z,10.02
2022-10-29T07:23:56.801Z,10.07
2022-10-29T07:26:23.451Z,10.17
2022-10-29T07:28:50.082Z,10.25
2022-10-29T07:31:25.705Z,10.30
2022-10-29T07:33:52.388Z,10.38
2022-10-29T07:36:19.143Z,10.50
2022-10-29T07:38:46.599Z,10.66
2022-10-29T07:41:13.661Z,10.83
2022-10-29T07:43:40.803Z,10.97
2022-10-29T07:46:07.383Z,11.13
2022-10-29T07:48:34.047Z,11.28
2022-10-29T07:51:01.696Z,11.40
2022-10-29T07:53:30.809Z,11.56
2022-10-29T07:55:57.798Z,11.71
2022-10-29T07:58:25.516Z,11.84
2022-10-29T08:00:52.941Z,12.01
2022-10-29T08:03:19.985Z,12.15
2022-10-29T08:05:55.206Z,12.32
2022-10-29T08:08:24.321Z,12.54
2022-10-29T08:10:50.953Z,12.88
2022-10-29T08:13:17.574Z,13.32
2022-10-29T08:15:46.649Z,13.93
2022-10-29T08:18:17.502Z,14.70
2022-10-29T08:20:44.642Z,15.49
2022-10-29T08:23:12.307Z,16.03
2022-10-29T08:25:42.375Z,16.77
2022-10-29T08:28:14.583Z,17.40
2022-10-29T08:30:43.453Z,17.94
2022-10-29T08:33:10.597Z,18.49
2022-10-29T08:35:37.810Z,18.86
2022-10-29T08:38:04.496Z,19.35
2022-10-29T08:40:34.283Z,19.82
2022-10-29T08:43:15.869Z,20.09
2022-10-29T08:45:48.085Z,20.37
2022-10-29T08:48:21.373Z,20.88
2022-10-29T08:51:03.878Z,21.39
2022-10-29T08:53:40.466Z,21.78
2022-10-29T08:56:18.815Z,22.17
2022-10-29T08:59:05.272Z,22.37
2022-10-29T09:01:32.587Z,22.57
2022-10-29T09:03:59.333Z,22.59
2022-10-29T09:06:28.863Z,23.04
2022-10-29T09:09:26.061Z,23.29
2022-10-29T09:12:31.153Z,23.15
2022-10-29T09:15:03.222Z,23.41
2022-10-29T09:17:43.484Z,23.48
2022-10-29T09:20:35.274Z,22.97
2022-10-29T09:23:27.972Z,22.68
2022-10-29T09:26:04.870Z,22.06
2022-10-29T09:28:37.457Z,21.81
2022-10-29T09:31:39.440Z,21.80
2022-10-29T09:34:13.778Z,22.53
2022-10-29T09:36:40.792Z,23.28
2022-10-29T09:39:13.819Z,23.64
2022-10-29T09:41:40.781Z,23.93
2022-10-29T09:44:15.948Z,24.17
2022-10-29T09:47:09.367Z,24.25
2022-10-29T09:50:05.160Z,24.21
2022-10-29T09:52:38.789Z,23.88
2022-10-29T09:55:07.171Z,23.43
2022-10-29T09:57:36.329Z,23.18
2022-10-29T10:00:21.895Z,23.40
2022-10-29T10:03:02.778Z,24.01
2022-10-29T10:05:32.284Z,24.48
2022-10-29T10:08:14.566Z,24.44
2022-10-29T10:10:51.853Z,24.51
2022-10-29T10:13:24.631Z,24.76
2022-10-29T10:15:59.368Z,25.20
2022-10-29T10:18:32.223Z,25.43
2022-10-29T10:21:26.764Z,25.67
2022-10-29T10:23:57.046Z,25.96
2022-10-29T10:26:32.892Z,26.16
2022-10-29T10:29:11.779Z,26.33
2022-10-29T10:31:43.293Z,26.64
2022-10-29T10:34:24.986Z,26.77
2022-10-29T10:37:02.310Z,26.91
2022-10-29T10:39:37.200Z,27.19
2022-10-29T10:42:14.218Z,27.12
2022-10-29T10:44:55.943Z,26.89
2022-10-29T10:47:26.923Z,26.73
2022-10-29T10:49:54.075Z,26.73
2022-10-29T10:52:28.488Z,27.06
2022-10-29T10:54:59.837Z,27.24
2022-10-29T10:57:50.479Z,27.33
2022-10-29T11:00:20.138Z,27.06
2022-10-29T11:03:05.731Z,27.19
2022-10-29T11:05:37.348Z,27.40
2022-10-29T11:08:19.132Z,27.33
2022-10-29T11:10:52.340Z,27.58
2022-10-29T11:13:22.942Z,27.59
2022-10-29T11:16:07.832Z,27.59
2022-10-29T11:19:01.520Z,27.50
2022-10-29T11:21:33.998Z,27.48
2022-10-29T11:24:23.436Z,27.56
2022-10-29T11:26:57.720Z,27.61
2022-10-29T11:30:03.499Z,27.73
2022-10-29T11:32:46.094Z,27.76
2022-10-29T11:35:32.412Z,27.63
2022-10-29T11:38:18.076Z,27.81
2022-10-29T11:40:44.634Z,27.49
2022-10-29T11:43:13.507Z,27.23
2022-10-29T11:45:57.928Z,27.04
2022-10-29T11:48:49.280Z,27.00
2022-10-29T11:51:35.190Z,27.08
2022-10-29T11:54:28.377Z,27.19
2022-10-29T11:57:04.505Z,27.00
2022-10-29T11:59:58.391Z,27.22
2022-10-29T12:02:24.917Z,27.25
2022-10-29T12:05:19.510Z,27.17
2022-10-29T12:07:46.111Z,27.34
2022-10-29T12:10:27.364Z,27.64
2022-10-29T12:13:19.267Z,27.64
2022-10-29T12:15:54.562Z,27.55
2022-10-29T12:19:05.354Z,27.55
2022-10-29T12:21:35.343Z,27.12
2022-10-29T12:24:27.170Z,27.16
2022-10-29T12:27:04.978Z,27.08
2022-10-29T12:29:47.330Z,26.95
2022-10-29T12:32:17.334Z,26.96
2022-10-29T12:35:08.389Z,26.93
2022-10-29T12:37:49.537Z,27.11
2022-10-29T12:40:24.950Z,27.31
2022-10-29T12:42:52.513Z,27.41
2022-10-29T12:45:36.914Z,27.54
2022-10-29T12:48:18.759Z,27.77
2022-10-29T12:51:13.625Z,27.90
2022-10-29T12:53:52.501Z,27.80
2022-10-29T12:56:19.992Z,27.64
2022-10-29T12:58:52.433Z,27.40
2022-10-29T13:01:38.227Z,27.12
2022-10-29T13:04:33.458Z,26.97
2022-10-29T13:07:02.039Z,26.76
2022-10-29T13:09:35.008Z,26.48
2022-10-29T13:12:12.630Z,26.42
2022-10-29T13:14:41.602Z,26.48
2022-10-29T13:17:22.315Z,26.32
2022-10-29T13:20:04.389Z,25.84
2022-10-29T13:22:33.173Z,25.15
2022-10-29T13:25:27.748Z,24.85
2022-10-29T13:27:54.478Z,24.58
2022-10-29T13:30:25.108Z,24.41
2022-10-29T13:32:53.301Z,23.91
2022-10-29T13:35:20.919Z,23.60
2022-10-29T13:38:08.645Z,23.49
2022-10-29T13:41:11.385Z,23.59
2022-10-29T13:43:42.015Z,23.61
2022-10-29T13:46:16.821Z,23.47
2022-10-29T13:48:45.370Z,23.40
2022-10-29T13:51:19.186Z,23.36
2022-10-29T13:53:58.551Z,23.37
2022-10-29T13:56:41.097Z,23.41
2022-10-29T13:59:16.872Z,23.47
2022-10-29T14:02:11.298Z,23.43
2022-10-29T14:04:41.230Z,23.32
2022-10-29T14:07:16.918Z,23.13
2022-10-29T14:09:48.639Z,22.69
2022-10-29T14:12:21.985Z,22.20
2022-10-29T14:15:01.456Z,22.14
2022-10-29T14:17:28.358Z,22.17
2022-10-29T14:19:55.005Z,22.01
2022-10-29T14:22:41.201Z,21.73
2022-10-29T14:25:28.717Z,21.54
2022-10-29T14:28:15.383Z,21.28
2022-10-29T14:30:42.624Z,20.92
2022-10-29T14:33:29.258Z,20.71
2022-10-29T14:36:05.806Z,20.50
2022-10-29T14:38:40.011Z,20.35
2022-10-29T14:41:07.232Z,20.20
2022-10-29T14:43:34.631Z,20.04
2022-10-29T14:46:16.167Z,19.84
2022-10-29T14:49:25.217Z,19.61
2022-10-29T14:51:56.365Z,19.33
2022-10-29T14:54:26.136Z,19.14
2022-10-29T14:57:02.631Z,18.94
2022-10-29T14:59:31.672Z,18.76
2022-10-29T15:02:17.150Z,18.58
2022-10-29T15:04:50.382Z,18.38
2022-10-29T15:07:23.158Z,18.23
2022-10-29T15:10:01.776Z,18.10
2022-10-29T15:12:37.653Z,17.99
2022-10-29T15:15:09.895Z,17.89
2022-10-29T15:17:55.090Z,17.78
2022-10-29T15:20:29.509Z,17.70
2022-10-29T15:22:58.160Z,17.62
2022-10-29T15:25:36.429Z,17.55
2022-10-29T15:28:08.251Z,17.49
2022-10-29T15:30:37.233Z,17.42
2022-10-29T15:33:15.558Z,17.37
2022-10-29T15:36:01.261Z,17.33
2022-10-29T15:38:33.708Z,17.27
2022-10-29T15:41:30.694Z,17.21
2022-10-29T15:43:58.536Z,17.13
2022-10-29T15:46:47.808Z,17.08
2022-10-29T15:49:15.367Z,17.03
2022-10-29T15:51:42.165Z,16.99
2022-10-29T15:54:15.345Z,16.97
2022-10-29T15:56:41.972Z,16.94
2022-10-29T15:59:13.349Z,16.88
2022-10-29T16:01:40.531Z,16.83
2022-10-29T16:04:08.905Z,16.78
2022-10-29T16:06:35.756Z,16.74
2022-10-29T16:09:02.876Z,16.70
2022-10-29T16:11:29.709Z,16.67
2022-10-29T16:13:56.308Z,16.61
2022-10-29T16:16:24.797Z,16.55
2022-10-29T16:18:52.817Z,16.49
2022-10-29T16:21:22.469Z,16.44
2022-10-29T16:23:50.048Z,16.37
2022-10-29T16:26:20.021Z,16.31
2022-10-29T16:28:46.770Z,16.26
2022-10-29T16:31:28.062Z,16.20
2022-10-29T16:33:58.306Z,16.14
2022-10-29T16:36:25.205Z,16.09
2022-10-29T16:38:51.956Z,16.04
2022-10-29T16:41:19.646Z,15.97
2022-10-29T16:43:46.537Z,15.88
2022-10-29T16:46:13.557Z,15.80
2022-10-29T16:48:40.779Z,15.71
2022-10-29T16:51:07.755Z,15.61
2022-10-29T16:53:35.308Z,15.49
2022-10-29T16:56:02.322Z,15.39
2022-10-29T16:58:29.563Z,15.30
2022-10-29T17:01:07.614Z,15.22
2022-10-29T17:03:34.916Z,15.15
2022-10-29T17:06:04.678Z,15.12
2022-10-29T17:08:33.239Z,15.11
2022-10-29T17:11:01.141Z,15.10
2022-10-29T17:13:28.248Z,15.09
2022-10-29T17:15:54.998Z,15.04
2022-10-29T17:18:23.619Z,15.04
2022-10-29T17:20:54.829Z,15.03
2022-10-29T17:23:21.449Z,15.01
2022-10-29T17:25:51.431Z,15.08
2022-10-29T17:28:19.230Z,15.08
2022-10-29T17:30:46.001Z,15.07
2022-10-29T17:33:12.773Z,15.06
2022-10-29T17:35:40.575Z,15.06
2022-10-29T17:38:07.231Z,15.07
2022-10-29T17:40:34.312Z,15.07
2022-10-29T17:43:01.216Z,15.06
2022-10-29T17:45:28.345Z,15.05
2022-10-29T17:47:56.997Z,15.03
2022-10-29T17:50:25.305Z,15.01
2022-10-29T17:52:53.011Z,15.00
2022-10-29T17:55:19.836Z,15.00
2022-10-29T17:57:46.537Z,14.99
2022-10-29T18:00:13.719Z,14.97
2022-10-29T18:02:40.895Z,15.00
2022-10-29T18:05:08.374Z,14.99
2022-10-29T18:07:35.008Z,15.01
2022-10-29T18:10:01.667Z,15.04
2022-10-29T18:12:28.873Z,15.09
2022-10-29T18:14:55.561Z,15.15
2022-10-29T18:17:22.474Z,15.19
2022-10-29T18:19:49.153Z,15.19
2022-10-29T18:22:15.861Z,15.17
2022-10-29T18:24:42.479Z,15.16
2022-10-29T18:27:09.998Z,15.14
2022-10-29T18:29:36.608Z,15.11
2022-10-29T18:32:03.468Z,15.08
2022-10-29T18:34:31.179Z,15.04
2022-10-29T18:36:58.360Z,15.01
2022-10-29T18:39:25.191Z,14.99
2022-10-29T18:41:51.881Z,14.98
2022-10-29T18:44:18.543Z,14.98
2022-10-29T18:46:45.185Z,14.97
2022-10-29T18:49:15.297Z,14.92
2022-10-29T18:51:41.988Z,14.93
2022-10-29T18:54:12.208Z,14.92
2022-10-29T18:56:39.151Z,14.91
2022-10-29T18:59:06.616Z,14.90
2022-10-29T19:01:35.856Z,14.90
2022-10-29T19:04:07.075Z,14.89
2022-10-29T19:06:36.294Z,14.89
2022-10-29T19:09:08.452Z,14.91
2022-10-29T19:11:35.664Z,14.90
2022-10-29T19:14:05.623Z,14.88
2022-10-29T19:16:33.154Z,14.87
2022-10-29T19:19:03.008Z,14.88
2022-10-29T19:21:33.171Z,14.85
2022-10-29T19:24:00.191Z,14.81
2022-10-29T19:26:30.131Z,14.80
2022-10-29T19:29:00.052Z,14.79
2022-10-29T19:31:29.192Z,14.78
2022-10-29T19:33:59.412Z,14.78
2022-10-29T19:36:27.585Z,14.76
2022-10-29T19:38:55.571Z,14.74
2022-10-29T19:41:22.660Z,14.73
2022-10-29T19:43:49.474Z,14.67
2022-10-29T19:46:18.702Z,14.62
2022-10-29T19:48:50.435Z,14.58
2022-10-29T19:51:18.260Z,14.55
2022-10-29T19:53:45.503Z,14.53
2022-10-29T19:56:14.596Z,14.51
2022-10-29T19:58:41.664Z,14.49
2022-10-29T20:01:12.125Z,14.41
2022-10-29T20:03:38.982Z,14.41
2022-10-29T20:06:08.523Z,14.37
2022-10-29T20:08:36.384Z,14.35
2022-10-29T20:11:04.171Z,14.35
2022-10-29T20:13:31.005Z,14.33
2022-10-29T20:15:57.929Z,14.33
2022-10-29T20:18:24.717Z,14.34
2022-10-29T20:20:55.996Z,14.37
2022-10-29T20:23:24.986Z,14.41
2022-10-29T20:25:51.656Z,14.44
2022-10-29T20:28:18.338Z,14.45
2022-10-29T20:30:44.968Z,14.50
2022-10-29T20:33:11.579Z,14.54
2022-10-29T20:35:38.700Z,14.58
2022-10-29T20:38:05.434Z,14.62
2022-10-29T20:40:32.112Z,14.66
2022-10-29T20:42:59.065Z,14.68
2022-10-29T20:45:25.823Z,14.69
2022-10-29T20:47:52.485Z,14.68
2022-10-29T20:50:19.177Z,14.68
2022-10-29T20:52:48.614Z,14.69
2022-10-29T20:55:15.842Z,14.67
2022-10-29T20:57:42.615Z,14.64
2022-10-29T21:00:09.968Z,14.61
2022-10-29T21:02:36.659Z,14.58
2022-10-29T21:05:03.566Z,14.54
2022-10-29T21:07:30.212Z,14.51
2022-10-29T21:09:56.852Z,14.48
2022-10-29T21:12:23.413Z,14.46
2022-10-29T21:14:50.087Z,14.42
2022-10-29T21:17:16.712Z,14.37
2022-10-29T21:19:43.329Z,14.34
2022-10-29T21:22:10.099Z,14.30
2022-10-29T21:24:38.286Z,14.31
2022-10-29T21:27:09.307Z,14.34
2022-10-29T21:29:35.980Z,14.35
2022-10-29T21:32:02.641Z,14.41
2022-10-29T21:34:29.244Z,14.42
2022-10-29T21:36:55.866Z,14.46
2022-10-29T21:39:22.434Z,14.51
2022-10-29T21:41:49.017Z,14.56
2022-10-29T21:44:15.716Z,14.60
2022-10-29T21:46:42.376Z,14.62
2022-10-29T21:49:08.971Z,14.60
2022-10-29T21:51:35.613Z,14.58
2022-10-29T21:54:02.271Z,14.55
2022-10-29T21:56:28.925Z,14.51
2022-10-29T21:58:55.534Z,14.46
2022-10-29T22:01:22.386Z,14.42
2022-10-29T22:03:49.285Z,14.36
2022-10-29T22:06:21.263Z,14.33
2022-10-29T22:08:53.334Z,14.29
2022-10-29T22:11:20.157Z,14.23
2022-10-29T22:13:46.871Z,14.20
2022-10-29T22:16:13.668Z,14.15
2022-10-29T22:18:40.611Z,14.09
2022-10-29T22:21:10.025Z,14.03
2022-10-29T22:23:41.782Z,13.93
2022-10-29T22:26:08.570Z,13.84
2022-10-29T22:28:35.241Z,13.76
2022-10-29T22:31:03.553Z,13.73
2022-10-29T22:33:32.178Z,13.67
2022-10-29T22:36:13.983Z,13.59
2022-10-29T22:38:41.621Z,13.54
2022-10-29T22:41:13.823Z,13.48
2022-10-29T22:43:40.721Z,13.38
2022-10-29T22:46:09.052Z,13.28
2022-10-29T22:48:36.330Z,13.22
2022-10-29T22:51:15.848Z,13.17
2022-10-29T22:53:44.036Z,13.10
2022-10-29T22:56:19.834Z,13.04
2022-10-29T22:58:47.762Z,12.92
2022-10-29T23:01:18.090Z,12.92
2022-10-29T23:03:45.365Z,12.89
2022-10-29T23:06:16.073Z,12.88
2022-10-29T23:08:44.258Z,12.90
2022-10-29T23:11:23.079Z,12.92
2022-10-29T23:13:52.887Z,12.92
2022-10-29T23:16:20.588Z,12.91
2022-10-29T23:18:49.518Z,12.92
2022-10-29T23:21:17.321Z,12.92
2022-10-29T23:23:44.080Z,12.92
2022-10-29T23:26:11.292Z,12.88
2022-10-29T23:28:39.448Z,12.83
2022-10-29T23:31:10.555Z,12.81
2022-10-29T23:33:37.426Z,12.85
2022-10-29T23:36:07.474Z,12.89
2022-10-29T23:38:34.991Z,12.92
2022-10-29T23:41:02.164Z,12.90
2022-10-29T23:43:29.502Z,12.86
2022-10-29T23:45:56.807Z,12.81
2022-10-29T23:48:24.228Z,12.78
2022-10-29T23:50:51.797Z,12.74
2022-10-29T23:53:18.481Z,12.74
2022-10-29T23:55:46.008Z,12.75
2022-10-29T23:58:13.477Z,12.78
